Time;durP1;ratioP1;P1;durP2;ratioP2;P2;SDS_P1;SDS_P2;PMS_P1;PMS_P2;Temp;Humidity;BMP_temperature;BMP_pressure;BME280_temperature;BME280_humidity;BME280_pressure;Samples;Min_cycle;Max_cycle;Signal;HPM_P1;HPM_P2
2022/04/27 00:00:47;;;;;;;72.43;25.77;;;;;5.30;94259.00;;;;7389872;19;20156;-77
2022/04/27 00:03:21;;;;;;;164.70;26.67;;;;;5.40;94261.00;;;;7389568;19;20503;-77
2022/04/27 00:05:49;;;;;;;307.80;30.50;;;;;5.40;94259.00;;;;7391724;19;20161;-77
2022/04/27 00:08:18;;;;;;;493.80;35.97;;;;;5.40;94267.00;;;;7390624;19;20208;-76
2022/04/27 00:10:52;;;;;;;518.97;39.07;;;;;5.30;94262.00;;;;7389212;19;20184;-77
2022/04/27 00:13:19;;;;;;;409.73;32.10;;;;;5.30;94266.00;;;;7390248;19;20149;-77
2022/04/27 00:15:47;;;;;;;504.20;41.50;;;;;5.30;94267.00;;;;7390781;19;20176;-77
2022/04/27 00:18:21;;;;;;;493.53;35.57;;;;;5.30;94253.00;;;;7391116;19;20642;-77
2022/04/27 00:20:49;;;;;;;373.83;33.40;;;;;5.30;94254.00;;;;7387442;19;20158;-77
2022/04/27 00:23:16;;;;;;;328.67;34.23;;;;;5.50;94254.00;;;;7388978;19;20159;-77
2022/04/27 00:25:50;;;;;;;319.10;33.63;;;;;5.40;94255.00;;;;7389378;19;20219;-77
2022/04/27 00:28:17;;;;;;;256.63;30.63;;;;;5.40;94248.00;;;;7389823;19;20518;-76
2022/04/27 00:30:45;;;;;;;246.40;26.93;;;;;5.40;94238.00;;;;7389556;19;20148;-77
2022/04/27 00:33:20;;;;;;;262.20;28.73;;;;;5.40;94244.00;;;;7390050;19;20153;-77
2022/04/27 00:35:47;;;;;;;209.53;27.97;;;;;5.50;94247.00;;;;7389469;19;20145;-77
2022/04/27 00:38:15;;;;;;;229.40;29.07;;;;;5.50;94245.00;;;;7388153;19;20676;-77
2022/04/27 00:40:49;;;;;;;178.93;26.87;;;;;5.40;94251.00;;;;7387197;19;20137;-77
2022/04/27 00:43:35;;;;;;;115.57;25.63;;;;;5.60;94257.00;;;;7389678;19;20553;-77
2022/04/27 00:46:09;;;;;;;76.53;21.20;;;;;5.30;94252.00;;;;7389597;19;20596;-77
2022/04/27 00:48:41;;;;;;;59.57;22.23;;;;;5.30;94253.00;;;;7389066;19;20148;-78
2022/04/27 00:51:21;;;;;;;44.40;19.70;;;;;5.40;94254.00;;;;7386836;19;20608;-77
2022/04/27 00:53:50;;;;;;;23.97;15.00;;;;;5.30;94257.00;;;;7388234;19;20177;-77
2022/04/27 00:56:30;;;;;;;25.63;17.30;;;;;5.20;94252.00;;;;7385944;19;20635;-77
2022/04/27 00:58:58;;;;;;;28.93;18.13;;;;;5.20;94258.00;;;;7389259;19;20153;-77
2022/04/27 01:01:35;;;;;;;29.27;17.97;;;;;5.20;94256.00;;;;7384995;19;20169;-78
2022/04/27 01:04:07;;;;;;;27.77;17.03;;;;;5.30;94264.00;;;;7389954;19;20145;-78
2022/04/27 01:06:42;;;;;;;24.60;15.90;;;;;5.30;94262.00;;;;7394794;19;20192;-78
2022/04/27 01:09:11;;;;;;;29.47;17.70;;;;;5.30;94267.00;;;;7393648;19;20196;-79
2022/04/27 01:11:39;;;;;;;22.83;16.37;;;;;5.10;94263.00;;;;7394644;19;20136;-80
2022/04/27 01:14:14;;;;;;;28.90;18.07;;;;;5.20;94260.00;;;;7391888;19;20174;-78
2022/04/27 01:16:41;;;;;;;27.63;17.20;;;;;5.10;94266.00;;;;7393968;19;20172;-80
2022/04/27 01:19:09;;;;;;;29.40;18.47;;;;;5.10;94267.00;;;;7394256;19;20612;-80
2022/04/27 01:21:43;;;;;;;31.87;18.57;;;;;5.20;94262.00;;;;7393942;19;20164;-79
2022/04/27 01:24:11;;;;;;;31.87;17.80;;;;;5.20;94267.00;;;;7392621;19;20157;-79
2022/04/27 01:26:39;;;;;;;27.53;17.87;;;;;5.10;94263.00;;;;7394174;19;20149;-78
2022/04/27 01:29:16;;;;;;;28.90;17.73;;;;;5.00;94251.00;;;;7393232;19;20133;-80
2022/04/27 01:31:44;;;;;;;26.30;16.93;;;;;4.90;94259.00;;;;7392870;19;20176;-79
2022/04/27 01:34:13;;;;;;;29.47;17.63;;;;;4.90;94251.00;;;;7392064;19;20160;-79
2022/04/27 01:36:47;;;;;;;29.07;17.83;;;;;4.90;94261.00;;;;7393746;19;20156;-78
2022/04/27 01:39:15;;;;;;;28.67;18.33;;;;;5.00;94262.00;;;;7393584;19;20514;-79
2022/04/27 01:41:42;;;;;;;39.00;20.17;;;;;5.10;94272.00;;;;7390487;19;20137;-79
2022/04/27 01:44:16;;;;;;;38.43;20.97;;;;;5.20;94266.00;;;;7392879;19;20220;-78
2022/04/27 01:46:44;;;;;;;40.60;21.53;;;;;5.20;94269.00;;;;7393488;19;20142;-78
2022/04/27 01:49:11;;;;;;;34.93;20.60;;;;;5.30;94273.00;;;;7392919;19;20156;-79
2022/04/27 01:54:32;;;;;;;33.87;19.37;;;;;5.50;94262.00;;;;7393195;19;20203;-78
2022/04/27 01:57:17;;;;;;;36.07;21.67;;;;;5.50;94266.00;;;;7390580;19;20168;-79
2022/04/27 01:59:45;;;;;;;44.53;24.40;;;;;5.40;94272.00;;;;7392038;19;20527;-79
2022/04/27 02:02:19;;;;;;;52.57;24.67;;;;;5.50;94272.00;;;;7393593;19;20158;-78
2022/04/27 02:04:47;;;;;;;54.37;23.97;;;;;5.40;94274.00;;;;7391912;19;20140;-78
2022/04/27 02:07:14;;;;;;;96.37;28.57;;;;;5.40;94272.00;;;;7393411;19;20720;-77
2022/04/27 02:09:49;;;;;;;65.50;25.73;;;;;5.30;94273.00;;;;7390531;19;20219;-78
2022/04/27 02:12:16;;;;;;;80.63;27.63;;;;;5.40;94281.00;;;;7390895;19;20156;-78
2022/04/27 02:14:44;;;;;;;55.07;24.43;;;;;5.50;94275.00;;;;7390320;19;20153;-77
2022/04/27 02:17:19;;;;;;;63.77;23.83;;;;;5.60;94286.00;;;;7392129;19;20169;-78
2022/04/27 02:19:46;;;;;;;80.43;26.20;;;;;5.50;94291.00;;;;7392687;19;20670;-78
2022/04/27 02:22:14;;;;;;;110.33;30.03;;;;;5.70;94284.00;;;;7392963;19;20132;-79
2022/04/27 02:24:48;;;;;;;135.17;29.47;;;;;5.50;94291.00;;;;7391383;19;20615;-80
2022/04/27 02:27:16;;;;;;;45.10;22.83;;;;;5.50;94295.00;;;;7392165;19;20165;-80
2022/04/27 02:29:43;;;;;;;87.33;24.63;;;;;5.40;94281.00;;;;7391710;19;20170;-80
2022/04/27 02:32:18;;;;;;;46.83;22.07;;;;;5.40;94285.00;;;;7392466;19;20156;-79
2022/04/27 02:34:45;;;;;;;85.57;25.10;;;;;5.40;94279.00;;;;7392100;19;20608;-80
2022/04/27 02:37:13;;;;;;;54.30;23.00;;;;;5.40;94276.00;;;;7392841;19;20186;-80
2022/04/27 02:39:47;;;;;;;36.00;20.17;;;;;5.40;94283.00;;;;7390300;19;20648;-79
2022/04/27 02:42:16;;;;;;;37.73;20.83;;;;;5.50;94284.00;;;;7392544;19;20148;-79
2022/04/27 02:44:44;;;;;;;38.23;20.87;;;;;5.40;94288.00;;;;7393022;19;20644;-79
2022/04/27 02:47:18;;;;;;;35.33;20.57;;;;;5.40;94283.00;;;;7390531;19;20136;-79
2022/04/27 02:52:38;;;;;;;37.03;20.47;;;;;5.50;94286.00;;;;7389345;19;20576;-78
2022/04/27 02:55:12;;;;;;;41.70;21.37;;;;;5.40;94281.00;;;;7391309;19;20623;-79
2022/04/27 02:57:53;;;;;;;31.13;18.23;;;;;5.40;94281.00;;;;7390831;19;20614;-79
2022/04/27 03:00:21;;;;;;;33.77;19.83;;;;;5.40;94290.00;;;;7388281;19;20624;-80
2022/04/27 03:02:56;;;;;;;33.50;18.83;;;;;5.40;94284.00;;;;7390769;19;20125;-79
2022/04/27 03:05:24;;;;;;;36.30;20.03;;;;;5.30;94290.00;;;;7390873;19;20161;-80
2022/04/27 03:07:51;;;;;;;37.57;20.77;;;;;5.40;94294.00;;;;7389116;19;20129;-79
2022/04/27 03:10:26;;;;;;;31.23;18.03;;;;;5.40;94289.00;;;;7388195;19;20516;-80
2022/04/27 03:12:53;;;;;;;32.27;19.73;;;;;5.60;94292.00;;;;7390016;19;20169;-77
2022/04/27 03:15:22;;;;;;;29.90;17.53;;;;;5.50;94283.00;;;;7390371;19;20628;-79
2022/04/27 03:20:43;;;;;;;30.33;17.37;;;;;5.30;94286.00;;;;7389473;19;20153;-80
2022/04/27 03:23:18;;;;;;;27.90;16.00;;;;;5.40;94291.00;;;;7390741;19;20208;-78
2022/04/27 03:25:46;;;;;;;31.80;17.80;;;;;5.30;94287.00;;;;7390541;19;20137;-79
2022/04/27 03:28:14;;;;;;;30.90;17.90;;;;;5.40;94298.00;;;;7388728;19;20145;-79
2022/04/27 03:30:49;;;;;;;25.77;15.53;;;;;5.30;94297.00;;;;7388430;19;20156;-79
2022/04/27 03:33:18;;;;;;;25.07;16.00;;;;;5.30;94293.00;;;;7388666;19;20149;-78
2022/04/27 03:35:47;;;;;;;31.53;17.93;;;;;5.30;94299.00;;;;7390190;19;20149;-80
2022/04/27 03:38:22;;;;;;;28.10;16.97;;;;;5.40;94307.00;;;;7389822;19;20155;-81
2022/04/27 03:40:50;;;;;;;32.00;17.60;;;;;5.40;94300.00;;;;7388145;19;20149;-79
2022/04/27 03:43:17;;;;;;;31.30;19.07;;;;;5.30;94295.00;;;;7389151;19;21270;-78
2022/04/27 03:45:52;;;;;;;28.43;16.43;;;;;5.20;94293.00;;;;7389018;19;20639;-80
2022/04/27 03:48:19;;;;;;;25.13;15.70;;;;;5.20;94309.00;;;;7388924;19;20630;-79
2022/04/27 03:50:47;;;;;;;24.37;16.07;;;;;5.20;94314.00;;;;7389502;19;20670;-80
2022/04/27 03:53:21;;;;;;;19.67;13.70;;;;;5.20;94323.00;;;;7389685;19;20160;-78
2022/04/27 03:55:54;;;;;;;21.13;14.40;;;;;5.20;94321.00;;;;7388952;19;20211;-79
2022/04/27 03:58:35;;;;;;;22.40;15.73;;;;;5.30;94323.00;;;;7388151;19;20128;-78
2022/04/27 04:01:03;;;;;;;25.87;15.97;;;;;5.20;94334.00;;;;7389059;19;20125;-79
2022/04/27 04:03:37;;;;;;;25.63;16.07;;;;;5.30;94326.00;;;;7391052;19;20690;-79
2022/04/27 04:06:05;;;;;;;26.83;17.57;;;;;5.20;94323.00;;;;7389789;19;20149;-79
2022/04/27 04:08:32;;;;;;;30.97;18.20;;;;;5.20;94329.00;;;;7387512;19;20212;-78
2022/04/27 04:11:07;;;;;;;25.73;15.43;;;;;5.40;94330.00;;;;7387204;19;20172;-79
2022/04/27 04:13:34;;;;;;;25.17;15.07;;;;;5.30;94330.00;;;;7389862;19;20147;-78
2022/04/27 04:16:02;;;;;;;23.00;14.47;;;;;5.30;94333.00;;;;7388664;19;20125;-77
2022/04/27 04:18:36;;;;;;;21.37;14.13;;;;;5.20;94347.00;;;;7388868;19;20156;-78
2022/04/27 04:21:03;;;;;;;24.77;14.83;;;;;5.30;94351.00;;;;7388443;19;20165;-78
2022/04/27 04:23:31;;;;;;;22.93;14.67;;;;;5.30;94337.00;;;;7388947;19;20152;-78
2022/04/27 04:28:51;;;;;;;23.63;16.67;;;;;5.20;94354.00;;;;7389476;19;20143;-78
2022/04/27 04:31:26;;;;;;;29.63;17.47;;;;;5.40;94355.00;;;;7387972;19;20156;-78
2022/04/27 04:33:53;;;;;;;31.30;17.60;;;;;5.20;94355.00;;;;7388912;19;20151;-77
2022/04/27 04:36:30;;;;;;;39.87;19.40;;;;;5.20;94371.00;;;;7387484;19;20596;-78
2022/04/27 04:39:05;;;;;;;33.07;18.50;;;;;5.30;94369.00;;;;7387558;19;20129;-77
2022/04/27 04:41:32;;;;;;;42.60;17.77;;;;;5.40;94366.00;;;;7390692;19;20164;-78
2022/04/27 04:44:00;;;;;;;43.17;20.60;;;;;5.40;94377.00;;;;7395259;19;20501;-77
2022/04/27 04:46:34;;;;;;;110.00;25.67;;;;;5.40;94382.00;;;;7394762;19;20706;-78
2022/04/27 04:49:02;;;;;;;304.27;32.50;;;;;5.40;94378.00;;;;7394109;19;20149;-77
2022/04/27 04:51:29;;;;;;;461.30;37.57;;;;;5.40;94380.00;;;;7396320;19;20749;-78
2022/04/27 04:54:04;;;;;;;415.33;36.77;;;;;5.50;94376.00;;;;7396872;19;20175;-78
2022/04/27 04:56:38;;;;;;;444.53;37.13;;;;;5.40;94388.00;;;;7395984;19;20537;-77
2022/04/27 04:59:20;;;;;;;668.73;46.33;;;;;5.50;94380.00;;;;7396899;19;20152;-77
2022/04/27 05:01:48;;;;;;;1266.50;66.23;;;;;5.40;94385.00;;;;7392331;19;20148;-77
2022/04/27 05:04:23;;;;;;;968.87;57.47;;;;;5.30;94388.00;;;;7395311;19;20148;-77
2022/04/27 05:06:57;;;;;;;1200.27;63.97;;;;;5.30;94381.00;;;;7396785;19;20140;-78
2022/04/27 05:09:32;;;;;;;732.30;49.83;;;;;5.40;94391.00;;;;7396520;19;20231;-77
2022/04/27 05:12:04;;;;;;;1072.07;59.33;;;;;5.40;94400.00;;;;7395751;19;20464;-77
2022/04/27 05:14:32;;;;;;;1303.43;66.30;;;;;5.40;94391.00;;;;7395874;19;20496;-78
2022/04/27 05:17:06;;;;;;;70.57;24.17;;;;;5.70;94388.00;;;;7395970;19;20584;-77
2022/04/27 05:19:35;;;;;;;61.20;23.57;;;;;5.60;94399.00;;;;7396157;19;20152;-76
2022/04/27 05:22:04;;;;;;;101.40;25.50;;;;;5.70;94396.00;;;;7395501;19;20133;-77
2022/04/27 05:24:38;;;;;;;43.33;21.13;;;;;5.70;94399.00;;;;7397671;19;20148;-77
2022/04/27 05:27:07;;;;;;;37.50;20.57;;;;;5.80;94407.00;;;;7396074;19;20161;-78
2022/04/27 05:32:45;;;;;;;34.20;19.90;;;;;5.60;94417.00;;;;7394104;19;20163;-78
2022/04/27 05:35:14;;;;;;;34.60;19.37;;;;;5.70;94413.00;;;;7395470;19;20156;-77
2022/04/27 05:37:49;;;;;;;31.70;18.47;;;;;5.80;94410.00;;;;7395691;19;20219;-78
2022/04/27 05:40:17;;;;;;;36.33;20.23;;;;;5.80;94418.00;;;;7395496;19;20177;-77
2022/04/27 05:42:47;;;;;;;33.23;18.83;;;;;5.80;94414.00;;;;7391557;19;20619;-76
2022/04/27 05:45:21;;;;;;;29.97;17.40;;;;;5.80;94422.00;;;;7394336;19;20144;-76
2022/04/27 05:47:49;;;;;;;34.30;18.73;;;;;5.90;94423.00;;;;7395213;19;20145;-78
2022/04/27 05:50:17;;;;;;;39.27;20.30;;;;;6.00;94426.00;;;;7389261;19;20184;-77
2022/04/27 05:52:56;;;;;;;38.47;19.40;;;;;5.90;94425.00;;;;7392512;19;20161;-78
2022/04/27 05:55:43;;;;;;;42.27;20.27;;;;;6.00;94436.00;;;;7393073;19;20733;-78
2022/04/27 05:58:17;;;;;;;23.53;16.23;;;;;5.90;94436.00;;;;7390284;19;20128;-76
2022/04/27 06:00:46;;;;;;;24.40;16.53;;;;;6.00;94438.00;;;;7393437;19;20147;-76
2022/04/27 06:03:14;;;;;;;30.43;17.10;;;;;6.00;94443.00;;;;7395215;19;20619;-77
2022/04/27 06:05:48;;;;;;;36.43;18.53;;;;;6.00;94445.00;;;;7396174;19;20124;-77
2022/04/27 06:08:17;;;;;;;33.00;20.00;;;;;6.00;94444.00;;;;7392525;19;20212;-77
2022/04/27 06:10:44;;;;;;;34.80;19.20;;;;;6.00;94442.00;;;;7393186;19;20176;-78
2022/04/27 06:13:19;;;;;;;40.00;20.10;;;;;6.10;94450.00;;;;7396232;19;20144;-77
2022/04/27 06:15:47;;;;;;;35.33;19.70;;;;;6.10;94463.00;;;;7394841;19;20155;-78
2022/04/27 06:18:15;;;;;;;32.47;19.87;;;;;6.10;94458.00;;;;7394521;19;20540;-79
2022/04/27 06:20:52;;;;;;;26.27;18.13;;;;;6.30;94455.00;;;;7393206;19;20519;-77
2022/04/27 06:23:20;;;;;;;24.73;17.50;;;;;6.20;94462.00;;;;7395511;19;20156;-77
2022/04/27 06:25:49;;;;;;;27.20;18.03;;;;;6.20;94460.00;;;;7394957;19;20162;-78
2022/04/27 06:28:29;;;;;;;24.87;17.97;;;;;6.20;94472.00;;;;7393294;19;20553;-76
2022/04/27 06:30:57;;;;;;;24.40;17.47;;;;;6.20;94470.00;;;;7392414;19;20129;-76
2022/04/27 06:33:31;;;;;;;24.70;17.20;;;;;6.30;94466.00;;;;7393135;19;20137;-76
2022/04/27 06:36:02;;;;;;;24.57;17.80;;;;;6.20;94462.00;;;;7393338;19;20140;-77
2022/04/27 06:38:30;;;;;;;22.27;16.87;;;;;6.40;94471.00;;;;7392643;19;20156;-76
2022/04/27 06:41:08;;;;;;;22.23;16.97;;;;;6.50;94470.00;;;;7393523;19;20627;-76
2022/04/27 06:43:37;;;;;;;20.70;16.67;;;;;6.60;94471.00;;;;7391252;19;20611;-77
2022/04/27 06:46:11;;;;;;;20.57;16.53;;;;;6.60;94475.00;;;;7393884;19;20208;-77
2022/04/27 06:48:39;;;;;;;21.07;17.27;;;;;6.40;94479.00;;;;7393267;19;20129;-76
2022/04/27 06:51:07;;;;;;;21.23;15.93;;;;;6.50;94479.00;;;;7392663;19;20178;-78
2022/04/27 06:53:41;;;;;;;23.13;15.20;;;;;6.50;94478.00;;;;7392191;19;20809;-75
2022/04/27 06:56:22;;;;;;;17.80;14.63;;;;;6.50;94483.00;;;;7390458;19;20232;-78
2022/04/27 06:58:57;;;;;;;15.43;13.53;;;;;6.50;94485.00;;;;7392255;19;20149;-78
2022/04/27 07:01:25;;;;;;;16.10;13.57;;;;;6.60;94495.00;;;;7390220;19;20155;-76
2022/04/27 07:03:55;;;;;;;15.90;13.57;;;;;6.80;94487.00;;;;7390462;19;20152;-79
2022/04/27 07:06:29;;;;;;;21.87;16.17;;;;;6.90;94500.00;;;;7392204;19;20203;-77
2022/04/27 07:08:57;;;;;;;17.07;14.80;;;;;7.00;94500.00;;;;7390545;19;20148;-76
2022/04/27 07:11:25;;;;;;;15.97;13.33;;;;;7.10;94504.00;;;;7384990;19;20476;-77
2022/04/27 07:14:16;;;;;;;14.60;12.77;;;;;7.20;94506.00;;;;7381855;19;20140;-78
2022/04/27 07:16:50;;;;;;;15.07;13.20;;;;;7.10;94506.00;;;;7385567;19;20153;-78
2022/04/27 07:19:24;;;;;;;14.93;13.33;;;;;6.80;94503.00;;;;7388806;19;20136;-78
2022/04/27 07:21:52;;;;;;;16.80;13.87;;;;;6.80;94497.00;;;;7386348;19;20244;-78
2022/04/27 07:24:24;;;;;;;16.00;12.33;;;;;6.60;94517.00;;;;7385515;19;20141;-80
2022/04/27 07:27:01;;;;;;;19.17;13.17;;;;;6.70;94509.00;;;;7391601;19;20172;-79
2022/04/27 07:29:32;;;;;;;17.97;13.57;;;;;6.80;94514.00;;;;7391801;19;20152;-80
2022/04/27 07:32:20;;;;;;;17.20;15.20;;;;;7.00;94517.00;;;;7390410;19;20159;-80
2022/04/27 07:34:51;;;;;;;16.20;14.10;;;;;7.30;94516.00;;;;7387505;19;20530;-77
2022/04/27 07:37:26;;;;;;;15.20;12.70;;;;;7.50;94518.00;;;;7387831;19;20222;-76
2022/04/27 07:40:01;;;;;;;18.77;13.13;;;;;7.60;94515.00;;;;7386704;19;20156;-78
2022/04/27 07:42:35;;;;;;;14.67;13.13;;;;;7.80;94519.00;;;;7386216;19;20129;-77
2022/04/27 07:45:06;;;;;;;15.53;13.70;;;;;7.80;94525.00;;;;7384459;19;20153;-78
2022/04/27 07:47:42;;;;;;;11.60;10.37;;;;;7.90;94525.00;;;;7385012;19;20166;-78
2022/04/27 07:50:20;;;;;;;12.53;10.90;;;;;8.00;94524.00;;;;7387292;19;20160;-78
2022/04/27 07:52:48;;;;;;;12.87;11.57;;;;;8.10;94532.00;;;;7384851;19;20619;-77
2022/04/27 07:55:16;;;;;;;11.87;10.67;;;;;8.00;94530.00;;;;7383306;19;20163;-77
2022/04/27 07:57:58;;;;;;;12.10;10.90;;;;;7.90;94534.00;;;;7379631;19;20207;-77
2022/04/27 08:00:29;;;;;;;12.93;10.80;;;;;8.00;94539.00;;;;7383242;19;20639;-78
2022/04/27 08:03:03;;;;;;;11.43;10.23;;;;;7.90;94543.00;;;;7381910;19;20181;-77
2022/04/27 08:05:32;;;;;;;15.80;10.13;;;;;7.70;94550.00;;;;7384033;19;20575;-78
2022/04/27 08:08:15;;;;;;;11.77;10.57;;;;;8.10;94550.00;;;;7384368;19;20125;-77
2022/04/27 08:10:55;;;;;;;12.03;10.83;;;;;7.90;94560.00;;;;7384448;19;20168;-77
2022/04/27 08:13:23;;;;;;;11.70;9.27;;;;;8.00;94552.00;;;;7387894;19;20160;-78
2022/04/27 08:15:58;;;;;;;11.97;10.30;;;;;8.60;94555.00;;;;7391076;19;20129;-76
2022/04/27 08:18:27;;;;;;;13.33;9.80;;;;;8.90;94561.00;;;;7392250;19;20140;-77
2022/04/27 08:21:18;;;;;;;10.57;9.47;;;;;8.90;94563.00;;;;7389905;19;20691;-76
2022/04/27 08:23:55;;;;;;;10.67;9.67;;;;;9.10;94572.00;;;;7391748;19;20548;-79
2022/04/27 08:26:23;;;;;;;10.57;9.50;;;;;9.80;94559.00;;;;7385651;19;20156;-80
2022/04/27 08:28:51;;;;;;;10.27;9.17;;;;;10.10;94551.00;;;;7392512;19;20968;-80
2022/04/27 08:31:28;;;;;;;9.27;8.38;;;;;10.60;94561.00;;;;7392701;19;20156;-77
2022/04/27 08:33:56;;;;;;;8.85;7.95;;;;;10.50;94558.00;;;;7394654;19;20673;-77
2022/04/27 08:36:24;;;;;;;9.52;7.60;;;;;10.70;94560.00;;;;7391085;19;20148;-79
2022/04/27 08:38:59;;;;;;;9.57;7.05;;;;;10.50;94560.00;;;;7393255;19;20139;-78
2022/04/27 08:41:29;;;;;;;8.65;7.25;;;;;11.80;94550.00;;;;7393986;19;20137;-79
2022/04/27 08:43:58;;;;;;;7.80;7.00;;;;;13.50;94543.00;;;;7400159;19;20136;-78
2022/04/27 08:46:34;;;;;;;7.18;6.47;;;;;13.20;94562.00;;;;7399088;19;20509;-79
2022/04/27 08:49:20;;;;;;;7.47;6.78;;;;;12.90;94551.00;;;;7392698;19;20150;-79
2022/04/27 08:52:00;;;;;;;7.50;6.80;;;;;13.30;94546.00;;;;7392649;19;20149;-78
2022/04/27 08:54:29;;;;;;;6.47;5.88;;;;;13.90;94559.00;;;;7391428;19;20144;-80
2022/04/27 08:57:25;;;;;;;5.85;5.32;;;;;13.60;94556.00;;;;7395228;19;20156;-80
2022/04/27 09:00:01;;;;;;;5.85;5.25;;;;;13.10;94565.00;;;;7397765;19;20149;-78
2022/04/27 09:02:35;;;;;;;6.70;4.88;;;;;12.40;94563.00;;;;7392229;19;20144;-78
2022/04/27 09:05:17;;;;;;;5.60;5.10;;;;;13.50;94563.00;;;;7393781;19;20156;-77
2022/04/27 09:07:57;;;;;;;5.05;4.60;;;;;15.20;94552.00;;;;7393228;19;20152;-78
2022/04/27 09:10:25;;;;;;;5.97;4.78;;;;;15.80;94547.00;;;;7391638;19;20798;-76
2022/04/27 09:12:59;;;;;;;4.80;4.40;;;;;14.90;94567.00;;;;7396189;19;20516;-76
2022/04/27 09:15:27;;;;;;;6.28;5.45;;;;;14.00;94565.00;;;;7396540;19;20141;-80
2022/04/27 09:21:02;;;;;;;6.03;5.47;;;;;12.30;94578.00;;;;7394745;19;20187;-79
2022/04/27 09:23:40;;;;;;;6.40;5.80;;;;;11.90;94584.00;;;;7388639;19;20259;-81
2022/04/27 09:26:19;;;;;;;6.30;5.07;;;;;11.50;94591.00;;;;7390370;19;20157;-81
2022/04/27 09:28:48;;;;;;;5.70;5.15;;;;;11.70;94583.00;;;;7390292;19;20765;-81
2022/04/27 09:31:31;;;;;;;7.97;6.20;;;;;13.10;94567.00;;;;7395739;19;20162;-81
2022/04/27 09:34:27;;;;;;;6.80;5.78;;;;;15.10;94572.00;;;;7394767;19;21236;-80
2022/04/27 09:37:02;;;;;;;5.72;5.22;;;;;15.60;94580.00;;;;7395914;19;20499;-79
2022/04/27 09:39:30;;;;;;;5.07;4.57;;;;;14.90;94575.00;;;;7395884;19;20145;-80
2022/04/27 09:42:07;;;;;;;5.20;4.70;;;;;14.80;94582.00;;;;7392928;19;20157;-81
2022/04/27 09:44:42;;;;;;;5.20;4.80;;;;;14.60;94587.00;;;;7390102;19;20158;-80
2022/04/27 09:47:20;;;;;;;6.70;4.82;;;;;13.80;94586.00;;;;7383874;19;20216;-83
2022/04/27 09:49:55;;;;;;;7.55;4.65;;;;;13.70;94584.00;;;;7385879;19;20651;-81
2022/04/27 09:52:27;;;;;;;5.82;4.93;;;;;15.50;94570.00;;;;7383519;19;20224;-80
2022/04/27 09:55:03;;;;;;;5.38;4.88;;;;;17.10;94569.00;;;;7385847;19;20152;-80
2022/04/27 09:57:41;;;;;;;5.05;4.55;;;;;17.00;94573.00;;;;7385671;19;20168;-80
2022/04/27 10:00:16;;;;;;;4.05;3.70;;;;;17.60;94579.00;;;;7389262;19;20148;-80
2022/04/27 10:02:47;;;;;;;4.47;4.07;;;;;16.80;94585.00;;;;7390519;19;20148;-80
2022/04/27 10:05:15;;;;;;;4.30;3.90;;;;;16.10;94578.00;;;;7388515;19;20159;-78
2022/04/27 10:07:51;;;;;;;4.57;3.70;;;;;16.20;94591.00;;;;7388206;19;20549;-82
2022/04/27 10:10:19;;;;;;;4.25;3.90;;;;;15.30;94590.00;;;;7387106;19;20197;-77
2022/04/27 10:12:48;;;;;;;4.35;3.95;;;;;15.30;94563.00;;;;7389497;19;20156;-80
2022/04/27 10:15:23;;;;;;;4.63;4.20;;;;;15.30;94590.00;;;;7382255;19;20162;-81
2022/04/27 10:17:51;;;;;;;3.80;3.50;;;;;15.10;94598.00;;;;7389572;19;20149;-79
2022/04/27 10:20:31;;;;;;;4.38;3.97;;;;;14.80;94592.00;;;;7387247;19;20761;-80
2022/04/27 10:23:31;;;;;;;7.05;3.83;;;;;14.40;94595.00;;;;7386442;19;20125;-80
2022/04/27 10:26:14;;;;;;;4.55;4.15;;;;;13.60;94596.00;;;;7391541;19;20159;-79
2022/04/27 10:28:50;;;;;;;3.47;3.17;;;;;12.80;94595.00;;;;7385304;19;20156;-79
2022/04/27 10:31:40;;;;;;;3.40;3.10;;;;;13.50;94595.00;;;;7387928;19;20152;-77
2022/04/27 10:34:20;;;;;;;4.68;3.50;;;;;14.40;94581.00;;;;7388563;19;20152;-77
2022/04/27 10:36:49;;;;;;;3.83;3.53;;;;;15.20;94574.00;;;;7383314;19;20587;-75
2022/04/27 10:39:30;;;;;;;4.82;3.70;;;;;15.30;94585.00;;;;7390739;19;20563;-77
2022/04/27 10:42:05;;;;;;;4.45;3.53;;;;;14.60;94588.00;;;;7385777;19;20212;-78
2022/04/27 10:44:55;;;;;;;4.03;3.47;;;;;14.00;94594.00;;;;7385485;19;20148;-75
2022/04/27 10:47:23;;;;;;;3.75;3.40;;;;;13.60;94594.00;;;;7385540;19;20737;-76
2022/04/27 10:50:18;;;;;;;5.00;3.92;;;;;13.70;94595.00;;;;7386870;19;20152;-75
2022/04/27 10:52:51;;;;;;;3.60;3.30;;;;;14.60;94598.00;;;;7390706;19;20244;-77
2022/04/27 10:55:42;;;;;;;3.97;3.60;;;;;14.70;94611.00;;;;7392559;19;20639;-76
2022/04/27 10:58:25;;;;;;;3.50;3.20;;;;;15.00;94605.00;;;;7385808;19;20176;-78
2022/04/27 11:01:02;;;;;;;4.40;3.92;;;;;14.80;94595.00;;;;7388186;19;20522;-76
2022/04/27 11:03:35;;;;;;;4.40;4.00;;;;;14.50;94612.00;;;;7386755;19;20160;-77
2022/04/27 11:06:12;;;;;;;3.83;3.53;;;;;14.70;94610.00;;;;7388318;19;20172;-77
2022/04/27 11:09:11;;;;;;;4.00;3.60;;;;;14.40;94618.00;;;;7389582;19;20178;-78
2022/04/27 11:11:56;;;;;;;6.80;4.10;;;;;14.20;94617.00;;;;7389239;19;20600;-79
2022/04/27 11:14:36;;;;;;;4.15;3.75;;;;;13.70;94621.00;;;;7387685;19;20144;-79
2022/04/27 11:17:10;;;;;;;6.40;3.65;;;;;13.60;94615.00;;;;7386881;19;20716;-79
2022/04/27 11:19:40;;;;;;;5.50;4.22;;;;;13.60;94621.00;;;;7389105;19;20160;-79
2022/04/27 11:22:13;;;;;;;4.65;4.25;;;;;13.60;94621.00;;;;7387445;19;20159;-79
2022/04/27 11:24:51;;;;;;;4.63;4.22;;;;;13.10;94630.00;;;;7388573;19;20344;-79
2022/04/27 11:27:23;;;;;;;5.43;4.13;;;;;12.60;94642.00;;;;7389305;19;20152;-80
2022/04/27 11:29:58;;;;;;;4.70;4.25;;;;;12.30;94636.00;;;;7389376;19;20148;-79
2022/04/27 11:32:29;;;;;;;4.85;4.32;;;;;12.70;94631.00;;;;7389252;19;20145;-77
2022/04/27 11:34:57;;;;;;;5.05;4.55;;;;;12.80;94635.00;;;;7390718;19;20148;-79
2022/04/27 11:37:36;;;;;;;5.28;4.78;;;;;12.60;94635.00;;;;7391191;19;20145;-79
2022/04/27 11:40:12;;;;;;;5.30;4.65;;;;;12.00;94637.00;;;;7386954;19;20148;-78
2022/04/27 11:42:48;;;;;;;5.43;4.93;;;;;12.00;94643.00;;;;7387224;19;20708;-79
2022/04/27 11:45:21;;;;;;;5.93;4.40;;;;;11.90;94645.00;;;;7390045;19;20158;-79
2022/04/27 11:48:37;;;;;;;4.72;4.28;;;;;12.50;94645.00;;;;7383307;19;20164;-79
2022/04/27 11:51:35;;;;;;;4.95;4.07;;;;;12.50;94640.00;;;;7379479;19;20618;-80
2022/04/27 11:54:10;;;;;;;5.05;4.55;;;;;12.90;94638.00;;;;7384755;19;21290;-79
2022/04/27 11:57:04;;;;;;;4.38;3.97;;;;;13.00;94647.00;;;;7384458;19;20223;-80
2022/04/27 11:59:56;;;;;;;4.32;3.92;;;;;13.10;94640.00;;;;7385764;19;20144;-79
2022/04/27 12:02:35;;;;;;;4.82;4.38;;;;;13.30;94640.00;;;;7383878;19;20145;-78
2022/04/27 12:05:15;;;;;;;4.75;4.30;;;;;13.20;94636.00;;;;7382685;19;20239;-79
2022/04/27 12:07:52;;;;;;;4.65;4.25;;;;;13.90;94634.00;;;;7385915;19;20493;-78
2022/04/27 12:10:39;;;;;;;4.78;4.30;;;;;14.50;94631.00;;;;7384691;19;21579;-77
2022/04/27 12:13:11;;;;;;;5.25;4.75;;;;;15.40;94636.00;;;;7384013;19;20208;-78
2022/04/27 12:15:58;;;;;;;5.13;4.60;;;;;17.00;94622.00;;;;7384963;19;20502;-76
2022/04/27 12:18:31;;;;;;;4.13;3.72;;;;;18.50;94598.00;;;;7383161;19;20149;-77
2022/04/27 12:21:20;;;;;;;4.78;4.35;;;;;19.50;94584.00;;;;7383252;19;20464;-78
2022/04/27 12:23:48;;;;;;;4.20;3.80;;;;;18.70;94612.00;;;;7380266;19;20152;-78
2022/04/27 12:26:24;;;;;;;5.50;4.28;;;;;18.40;94611.00;;;;7383699;19;20170;-76
2022/04/27 12:28:53;;;;;;;4.20;3.80;;;;;16.80;94620.00;;;;7383438;19;20196;-79
2022/04/27 12:31:26;;;;;;;4.43;3.42;;;;;16.30;94629.00;;;;7380025;19;21502;-79
2022/04/27 12:37:29;;;;;;;6.65;3.85;;;;;15.80;94631.00;;;;7384312;19;20141;-77
2022/04/27 12:37:29;;;;;;;4.38;3.97;;;;;14.90;94642.00;;;;7385189;19;21356;-76
2022/04/27 12:39:57;;;;;;;5.00;3.80;;;;;14.30;94638.00;;;;7394706;19;20568;-78
2022/04/27 12:42:26;;;;;;;4.00;3.70;;;;;14.50;94603.00;;;;7391383;19;20141;-79
2022/04/27 12:44:59;;;;;;;4.22;3.83;;;;;16.10;94612.00;;;;7391242;19;20156;-77
2022/04/27 12:47:45;;;;;;;4.25;3.65;;;;;18.40;94629.00;;;;7391695;19;20153;-77
2022/04/27 12:50:13;;;;;;;4.00;3.70;;;;;18.30;94603.00;;;;7392784;19;20160;-77
2022/04/27 12:52:47;;;;;;;4.93;3.85;;;;;19.80;94596.00;;;;7390494;19;20153;-76
2022/04/27 12:55:20;;;;;;;4.28;3.60;;;;;21.10;94600.00;;;;7394924;19;20138;-80
2022/04/27 12:58:08;;;;;;;4.90;3.70;;;;;19.50;94608.00;;;;7389214;19;20196;-77
2022/04/27 13:00:45;;;;;;;4.35;3.90;;;;;18.50;94619.00;;;;7393580;19;20173;-78